METAR Analyzer

一覧表示

Hello, Guest. (Login)

RJNK/KMQ  -  小松

観測日時
2020-10-25 14:00 (UTC) (21分前)
気温
11
露点
9
湿数
2
相対湿度
87.5%
QNH
1017hPa
推定現地気圧
1016.2hPa
推定海面気圧
1017.1hPa
体感温度
5.2
(無風時)
13.5
HI
10.4
気温前日比
-3
体感温度前日比
+1.5
HI前日比
-2.4
水平視程
>10000m
鉛直視程
データなし
雲底高度
No dense clouds
V/I
VMC (VFR)
RVR
No RVR data
卓越風
3kt from 170° (140° ~ 210°)
ガスト
No gust
降水
報告なし
その他の天気
報告なし
少しの雲 @ 3000ft AGL / 散在する雲 @ 7000ft AGL

RJNK 251400Z 17003KT 140V210 9999 FEW030 SCT070 11/09 Q1017

7.7msec